createdAt,value
2023-03-27T00:00:12.898Z,4.00
2023-03-27T00:02:41.591Z,3.90
2023-03-27T00:05:10.321Z,4.27
2023-03-27T00:07:41.046Z,4.10
2023-03-27T00:10:09.650Z,4.00
2023-03-27T00:12:39.215Z,3.90
2023-03-27T00:15:08.196Z,4.10
2023-03-27T00:17:36.938Z,4.10
2023-03-27T00:20:06.141Z,4.33
2023-03-27T00:22:33.841Z,3.70
2023-03-27T00:25:01.478Z,3.40
2023-03-27T00:27:29.112Z,3.40
2023-03-27T00:29:58.122Z,3.17
2023-03-27T00:32:27.006Z,4.23
2023-03-27T00:34:54.751Z,3.40
2023-03-27T00:37:22.939Z,3.73
2023-03-27T00:39:50.584Z,3.50
2023-03-27T00:42:22.740Z,3.60
2023-03-27T00:44:51.895Z,3.60
2023-03-27T00:47:24.201Z,3.70
2023-03-27T00:49:52.669Z,3.50
2023-03-27T00:52:21.319Z,3.40
2023-03-27T00:54:49.252Z,3.60
2023-03-27T00:57:20.069Z,3.20
2023-03-27T00:59:49.296Z,3.50
2023-03-27T01:02:17.862Z,4.20
2023-03-27T01:04:47.056Z,3.50
2023-03-27T01:07:16.142Z,3.90
2023-03-27T01:09:45.696Z,3.70
2023-03-27T01:12:24.043Z,3.90
2023-03-27T01:15:02.554Z,3.63
2023-03-27T01:17:43.769Z,3.50
2023-03-27T01:20:42.414Z,3.50
2023-03-27T01:23:36.347Z,3.37
2023-03-27T01:26:57.433Z,3.37
2023-03-27T01:29:34.434Z,3.00
2023-03-27T01:32:21.969Z,2.87
2023-03-27T01:35:04.390Z,2.73
2023-03-27T01:37:51.595Z,2.90
2023-03-27T01:40:22.939Z,3.03
2023-03-27T01:42:55.459Z,2.80
2023-03-27T01:45:26.375Z,2.70
2023-03-27T01:47:59.249Z,3.47
2023-03-27T01:50:31.793Z,2.90
2023-03-27T01:53:02.096Z,2.50
2023-03-27T01:55:36.326Z,2.80
2023-03-27T01:58:08.299Z,2.50
2023-03-27T02:00:51.636Z,2.90
2023-03-27T02:03:23.789Z,2.80
2023-03-27T02:05:56.265Z,2.80
2023-03-27T02:08:29.762Z,2.00
2023-03-27T02:11:08.162Z,2.10
2023-03-27T02:13:41.452Z,2.20
2023-03-27T02:16:15.749Z,2.57
2023-03-27T02:18:47.764Z,2.53
2023-03-27T02:21:16.931Z,2.33
2023-03-27T02:23:45.329Z,2.07
2023-03-27T02:26:15.471Z,2.07
2023-03-27T02:29:18.277Z,2.00
2023-03-27T02:31:56.235Z,2.00
2023-03-27T02:34:50.231Z,2.00
2023-03-27T02:37:22.153Z,1.77
2023-03-27T02:40:40.076Z,1.90
2023-03-27T02:43:32.903Z,1.90
2023-03-27T02:46:05.479Z,1.67
2023-03-27T02:48:38.804Z,1.80
2023-03-27T02:51:09.328Z,2.00
2023-03-27T02:53:41.249Z,2.10
2023-03-27T02:56:10.440Z,1.87
2023-03-27T02:58:44.993Z,1.90
2023-03-27T03:01:23.627Z,1.80
2023-03-27T03:04:07.359Z,1.87
2023-03-27T03:06:50.644Z,1.60
2023-03-27T03:09:19.011Z,2.00
2023-03-27T03:11:49.230Z,1.93
2023-03-27T03:14:21.253Z,2.13
2023-03-27T03:16:49.015Z,2.20
2023-03-27T03:19:17.212Z,2.17
2023-03-27T03:21:46.430Z,1.73
2023-03-27T03:24:14.129Z,2.03
2023-03-27T03:26:44.958Z,1.83
2023-03-27T03:29:14.137Z,1.90
2023-03-27T03:31:50.085Z,2.27
2023-03-27T03:34:19.420Z,1.70
2023-03-27T03:36:49.171Z,2.23
2023-03-27T03:39:20.392Z,2.03
2023-03-27T03:41:51.066Z,2.67
2023-03-27T03:44:20.075Z,2.47
2023-03-27T03:46:49.738Z,2.00
2023-03-27T03:49:21.706Z,2.30
2023-03-27T03:52:04.304Z,2.40
2023-03-27T03:54:33.919Z,2.27
2023-03-27T03:57:03.104Z,1.80
2023-03-27T03:59:31.581Z,2.00
2023-03-27T04:02:28.251Z,1.90
2023-03-27T04:05:00.809Z,1.90
2023-03-27T04:07:36.987Z,1.80
2023-03-27T04:10:27.534Z,2.30
2023-03-27T04:12:58.354Z,2.10
2023-03-27T04:15:31.668Z,1.90
2023-03-27T04:18:14.989Z,1.90
2023-03-27T04:20:43.578Z,1.90
2023-03-27T04:23:14.359Z,1.87
2023-03-27T04:25:42.524Z,2.00
2023-03-27T04:28:16.376Z,2.23
2023-03-27T04:30:50.202Z,1.67
2023-03-27T04:33:40.076Z,1.87
2023-03-27T04:36:47.892Z,2.00
2023-03-27T04:39:22.887Z,2.47
2023-03-27T04:41:50.651Z,2.00
2023-03-27T04:44:19.167Z,1.80
2023-03-27T04:46:49.090Z,2.00
2023-03-27T04:49:20.258Z,2.20
2023-03-27T04:52:14.118Z,2.37
2023-03-27T04:54:43.082Z,2.67
2023-03-27T04:57:11.420Z,2.30
2023-03-27T04:59:39.495Z,2.80
2023-03-27T05:02:45.848Z,2.67
2023-03-27T05:05:20.395Z,3.03
2023-03-27T05:07:48.843Z,2.53
2023-03-27T05:10:21.769Z,2.50
2023-03-27T05:12:52.652Z,2.77
2023-03-27T05:15:21.970Z,3.73
2023-03-27T05:17:54.167Z,2.80
2023-03-27T05:20:26.319Z,2.73
2023-03-27T05:22:54.618Z,2.53
2023-03-27T05:25:26.613Z,2.80
2023-03-27T05:27:55.481Z,3.07
2023-03-27T05:30:26.906Z,3.20
2023-03-27T05:33:10.161Z,3.53
2023-03-27T05:35:41.880Z,2.87
2023-03-27T05:38:10.266Z,3.20
2023-03-27T05:40:47.474Z,2.80
2023-03-27T05:43:18.577Z,3.17
2023-03-27T05:45:46.705Z,3.23
2023-03-27T05:48:14.940Z,2.60
2023-03-27T05:50:44.456Z,2.97
2023-03-27T05:53:27.953Z,3.33
2023-03-27T05:56:22.422Z,3.33
2023-03-27T05:58:54.610Z,3.30
2023-03-27T06:01:24.393Z,3.10
2023-03-27T06:03:55.941Z,3.33
2023-03-27T06:06:51.604Z,3.10
2023-03-27T06:09:19.366Z,3.73
2023-03-27T06:12:06.649Z,3.30
2023-03-27T06:14:39.486Z,4.27
2023-03-27T06:17:26.544Z,3.67
2023-03-27T06:20:00.350Z,3.00
2023-03-27T06:22:33.362Z,3.53
2023-03-27T06:25:06.371Z,2.97
2023-03-27T06:27:34.957Z,2.60
2023-03-27T06:30:02.645Z,2.70
2023-03-27T06:32:31.095Z,1.90
2023-03-27T06:34:59.477Z,2.10
2023-03-27T06:37:50.663Z,2.00
2023-03-27T06:40:22.830Z,2.93
2023-03-27T06:42:54.300Z,2.10
2023-03-27T06:45:32.238Z,1.70
2023-03-27T06:48:24.439Z,1.90
2023-03-27T06:50:56.707Z,2.43
2023-03-27T06:53:28.360Z,1.60
2023-03-27T06:55:57.667Z,2.17
2023-03-27T06:58:27.468Z,2.37
2023-03-27T07:00:56.274Z,1.60
2023-03-27T07:03:35.071Z,2.27
2023-03-27T07:06:22.037Z,1.70
2023-03-27T07:08:56.194Z,1.90
2023-03-27T07:11:25.312Z,1.73
2023-03-27T07:13:56.449Z,2.07
2023-03-27T07:16:27.570Z,1.60
2023-03-27T07:18:55.680Z,2.10
2023-03-27T07:21:24.287Z,2.80
2023-03-27T07:23:52.086Z,2.50
2023-03-27T07:26:40.658Z,2.50
2023-03-27T07:29:14.474Z,2.45
2023-03-27T07:31:57.699Z,2.90
2023-03-27T07:34:47.899Z,3.13
2023-03-27T07:37:38.613Z,3.30
2023-03-27T07:40:36.842Z,3.40
2023-03-27T07:43:31.743Z,3.53
2023-03-27T07:46:00.970Z,4.15
2023-03-27T07:48:29.962Z,3.10
2023-03-27T07:51:10.655Z,3.83
2023-03-27T07:53:41.475Z,3.30
2023-03-27T07:56:20.732Z,3.10
2023-03-27T07:58:51.135Z,2.90
2023-03-27T08:01:21.885Z,2.95
2023-03-27T08:03:50.370Z,3.28
2023-03-27T08:06:20.734Z,3.42
2023-03-27T08:08:49.383Z,3.58
2023-03-27T08:11:29.702Z,3.10
2023-03-27T08:14:00.405Z,3.42
2023-03-27T08:16:30.060Z,2.97
2023-03-27T08:19:00.640Z,3.00
2023-03-27T08:21:28.347Z,3.05
2023-03-27T08:23:58.495Z,2.90
2023-03-27T08:26:36.204Z,3.20
2023-03-27T08:29:09.399Z,2.85
2023-03-27T08:31:38.646Z,2.88
2023-03-27T08:34:07.181Z,2.72
2023-03-27T08:36:52.433Z,2.65
2023-03-27T08:39:22.760Z,2.72
2023-03-27T08:41:58.303Z,2.95
2023-03-27T08:44:34.663Z,2.83
2023-03-27T08:47:12.676Z,3.00
2023-03-27T08:49:49.130Z,2.90
2023-03-27T08:52:31.912Z,2.45
2023-03-27T08:55:02.528Z,3.10
2023-03-27T08:57:37.717Z,3.05
2023-03-27T09:00:22.569Z,2.70
2023-03-27T09:02:57.917Z,3.33
2023-03-27T09:05:35.335Z,3.28
2023-03-27T09:08:06.958Z,3.00
2023-03-27T09:10:37.497Z,3.70
2023-03-27T09:13:22.408Z,2.97
2023-03-27T09:15:55.412Z,2.97
2023-03-27T09:18:27.876Z,2.92
2023-03-27T09:20:58.703Z,2.80
2023-03-27T09:23:28.906Z,3.25
2023-03-27T09:26:25.565Z,3.10
2023-03-27T09:28:56.785Z,3.17
2023-03-27T09:31:31.870Z,3.20
2023-03-27T09:34:07.119Z,2.80
2023-03-27T09:36:35.815Z,3.15
2023-03-27T09:39:07.710Z,3.30
2023-03-27T09:41:38.869Z,2.90
2023-03-27T09:44:11.538Z,2.88
2023-03-27T09:46:47.600Z,2.85
2023-03-27T09:49:17.874Z,3.58
2023-03-27T09:51:51.579Z,3.15
2023-03-27T09:54:52.019Z,3.20
2023-03-27T09:57:22.128Z,3.63
2023-03-27T09:59:58.358Z,3.70
2023-03-27T10:02:31.064Z,3.72
2023-03-27T10:05:00.899Z,3.78
2023-03-27T10:07:33.597Z,3.80
2023-03-27T10:10:21.005Z,4.40
2023-03-27T10:13:14.023Z,3.40
2023-03-27T10:15:48.759Z,3.70
2023-03-27T10:18:28.133Z,3.70
2023-03-27T10:21:10.604Z,5.88
2023-03-27T10:23:44.002Z,3.10
2023-03-27T10:26:21.265Z,1.80
2023-03-27T10:28:51.990Z,1.30
2023-03-27T10:31:30.800Z,1.00
2023-03-27T10:34:32.406Z,0.73
2023-03-27T10:37:27.184Z,0.60
2023-03-27T10:40:09.372Z,0.60
2023-03-27T10:42:41.855Z,0.50
2023-03-27T10:45:16.651Z,0.67
2023-03-27T10:47:47.683Z,0.70
2023-03-27T10:50:21.244Z,0.70
2023-03-27T10:52:56.991Z,0.60
2023-03-27T10:55:41.925Z,0.80
2023-03-27T10:58:23.450Z,1.25
2023-03-27T11:00:57.394Z,2.00
2023-03-27T11:03:30.953Z,2.05
2023-03-27T11:06:09.032Z,2.30
2023-03-27T11:08:49.002Z,2.70
2023-03-27T11:11:19.129Z,3.10
2023-03-27T11:13:50.246Z,2.78
2023-03-27T11:16:22.365Z,2.88
2023-03-27T11:19:25.634Z,2.97
2023-03-27T11:22:33.229Z,2.70
2023-03-27T11:25:05.762Z,2.83
2023-03-27T11:27:37.139Z,2.70
2023-03-27T11:30:19.979Z,2.95
2023-03-27T11:33:03.074Z,2.80
2023-03-27T11:35:34.973Z,2.80
2023-03-27T11:38:37.121Z,2.65
2023-03-27T11:41:06.024Z,2.83
2023-03-27T11:43:34.062Z,3.38
2023-03-27T11:46:10.676Z,3.92
2023-03-27T11:48:59.005Z,5.15
2023-03-27T11:51:34.607Z,4.45
2023-03-27T11:54:13.247Z,3.95
2023-03-27T11:57:05.874Z,3.58
2023-03-27T12:00:11.070Z,2.53
2023-03-27T12:03:01.483Z,1.80
2023-03-27T12:05:38.595Z,1.80
2023-03-27T12:08:10.929Z,2.35
2023-03-27T12:10:44.848Z,2.47
2023-03-27T12:14:17.643Z,2.47
2023-03-27T12:17:03.063Z,2.97
2023-03-27T12:19:59.826Z,3.45
2023-03-27T12:22:37.958Z,3.17
2023-03-27T12:25:26.413Z,3.30
2023-03-27T12:28:02.212Z,3.22
2023-03-27T12:30:47.517Z,3.25
2023-03-27T12:33:31.440Z,2.65
2023-03-27T12:36:01.850Z,2.88
2023-03-27T12:38:31.398Z,2.63
2023-03-27T12:41:03.715Z,2.88
2023-03-27T12:43:47.730Z,3.58
2023-03-27T12:46:35.287Z,3.75
2023-03-27T12:49:34.196Z,3.70
2023-03-27T12:52:09.101Z,3.72
2023-03-27T12:55:24.025Z,3.05
2023-03-27T12:58:32.164Z,3.28
2023-03-27T13:01:45.513Z,3.65
2023-03-27T13:04:45.198Z,3.40
2023-03-27T13:07:19.676Z,3.53
2023-03-27T13:10:25.806Z,3.58
2023-03-27T13:13:25.899Z,3.20
2023-03-27T13:16:14.502Z,3.30
2023-03-27T13:19:00.162Z,3.10
2023-03-27T13:21:36.705Z,2.70
2023-03-27T13:24:17.423Z,2.50
2023-03-27T13:26:53.664Z,2.63
2023-03-27T13:29:26.363Z,3.03
2023-03-27T13:32:05.237Z,3.35
2023-03-27T13:35:01.974Z,2.60
2023-03-27T13:37:48.033Z,2.55
2023-03-27T13:40:24.540Z,3.03
2023-03-27T13:43:01.610Z,2.92
2023-03-27T13:45:37.174Z,3.35
2023-03-27T13:48:50.470Z,3.05
2023-03-27T13:51:29.519Z,3.70
2023-03-27T13:54:38.191Z,3.20
2023-03-27T13:57:17.185Z,2.85
2023-03-27T14:00:24.064Z,2.90
2023-03-27T14:03:19.921Z,2.97
2023-03-27T14:06:07.127Z,3.78
2023-03-27T14:08:47.479Z,4.13
2023-03-27T14:11:59.074Z,3.88
2023-03-27T14:15:19.830Z,3.67
2023-03-27T14:18:08.152Z,3.50
2023-03-27T14:20:41.355Z,3.40
2023-03-27T14:23:16.441Z,3.60
2023-03-27T14:26:01.766Z,4.00
2023-03-27T14:28:34.612Z,3.78
2023-03-27T14:31:07.300Z,3.70
2023-03-27T14:33:57.307Z,3.42
2023-03-27T14:36:30.120Z,4.20
2023-03-27T14:39:02.407Z,3.38
2023-03-27T14:41:47.772Z,3.80
2023-03-27T14:44:18.504Z,4.00
2023-03-27T14:46:48.042Z,3.92
2023-03-27T14:49:19.298Z,3.60
2023-03-27T14:51:53.370Z,3.60
2023-03-27T14:54:54.739Z,3.88
2023-03-27T14:57:27.909Z,3.65
2023-03-27T14:59:58.685Z,4.47
2023-03-27T15:02:30.260Z,4.22
2023-03-27T15:05:05.709Z,4.50
2023-03-27T15:07:35.161Z,4.25
2023-03-27T15:10:25.897Z,4.20
2023-03-27T15:13:26.619Z,4.78
2023-03-27T15:15:57.340Z,4.90
2023-03-27T15:18:33.388Z,5.15
2023-03-27T15:21:04.697Z,4.65
2023-03-27T15:23:37.732Z,4.93
2023-03-27T15:26:08.246Z,3.95
2023-03-27T15:28:41.439Z,3.70
2023-03-27T15:31:09.753Z,3.30
2023-03-27T15:33:42.600Z,2.42
2023-03-27T15:36:22.479Z,2.60
2023-03-27T15:38:51.082Z,3.70
2023-03-27T15:41:38.483Z,2.90
2023-03-27T15:44:11.952Z,3.60
2023-03-27T15:46:48.702Z,4.03
2023-03-27T15:49:21.508Z,3.30
2023-03-27T15:51:49.175Z,3.17
2023-03-27T15:54:25.729Z,2.95
2023-03-27T15:57:10.948Z,3.58
2023-03-27T15:59:51.603Z,3.60
2023-03-27T16:02:21.179Z,3.88
2023-03-27T16:04:53.426Z,3.80
2023-03-27T16:07:24.097Z,3.80
2023-03-27T16:09:54.030Z,4.57
2023-03-27T16:12:25.769Z,3.58
2023-03-27T16:14:57.166Z,3.95
2023-03-27T16:17:40.287Z,3.80
2023-03-27T16:20:31.557Z,4.05
2023-03-27T16:22:59.316Z,3.38
2023-03-27T16:25:27.026Z,3.92
2023-03-27T16:27:55.844Z,3.35
2023-03-27T16:30:29.286Z,3.13
2023-03-27T16:32:57.278Z,3.38
2023-03-27T16:35:25.060Z,3.13
2023-03-27T16:37:52.739Z,3.10
2023-03-27T16:40:20.550Z,2.60
2023-03-27T16:42:48.324Z,2.42
2023-03-27T16:45:16.487Z,2.75
2023-03-27T16:47:49.083Z,2.67
2023-03-27T16:50:21.735Z,2.75
2023-03-27T16:52:49.504Z,3.17
2023-03-27T16:55:17.446Z,3.83
2023-03-27T16:57:46.149Z,3.17
2023-03-27T17:00:15.921Z,3.50
2023-03-27T17:02:46.356Z,3.80
2023-03-27T17:05:15.718Z,3.38
2023-03-27T17:07:45.063Z,3.63
2023-03-27T17:10:13.428Z,3.75
2023-03-27T17:12:41.184Z,3.38
2023-03-27T17:15:09.868Z,3.10
2023-03-27T17:17:38.552Z,3.83
2023-03-27T17:20:07.812Z,3.72
2023-03-27T17:22:37.000Z,3.25
2023-03-27T17:25:05.998Z,3.30
2023-03-27T17:27:34.312Z,2.95
2023-03-27T17:30:02.034Z,3.85
2023-03-27T17:32:30.790Z,3.10
2023-03-27T17:34:58.476Z,2.40
2023-03-27T17:37:27.138Z,2.37
2023-03-27T17:39:57.077Z,1.90
2023-03-27T17:42:24.915Z,1.87
2023-03-27T17:44:52.615Z,1.60
2023-03-27T17:47:20.846Z,1.53
2023-03-27T17:49:48.473Z,1.43
2023-03-27T17:52:16.202Z,1.67
2023-03-27T17:54:43.927Z,1.27
2023-03-27T17:57:12.980Z,1.50
2023-03-27T17:59:41.545Z,1.30
2023-03-27T18:02:16.822Z,1.57
2023-03-27T18:04:44.947Z,1.37
2023-03-27T18:07:13.026Z,1.50
2023-03-27T18:09:40.833Z,2.20
2023-03-27T18:12:08.538Z,2.03
2023-03-27T18:14:38.155Z,1.90
2023-03-27T18:17:06.456Z,1.87
2023-03-27T18:19:34.133Z,2.10
2023-03-27T18:22:01.829Z,1.93
2023-03-27T18:24:29.937Z,1.53
2023-03-27T18:26:57.694Z,1.80
2023-03-27T18:29:25.490Z,2.10
2023-03-27T18:31:54.837Z,2.00
2023-03-27T18:34:23.070Z,1.80
2023-03-27T18:36:52.608Z,2.30
2023-03-27T18:39:20.486Z,2.27
2023-03-27T18:41:48.257Z,2.53
2023-03-27T18:44:16.846Z,2.70
2023-03-27T18:46:44.786Z,2.10
2023-03-27T18:49:24.466Z,2.93
2023-03-27T18:51:53.126Z,2.27
2023-03-27T18:54:21.064Z,2.47
2023-03-27T18:56:48.868Z,3.00
2023-03-27T18:59:16.654Z,1.97
2023-03-27T19:01:44.841Z,2.43
2023-03-27T19:04:16.475Z,2.00
2023-03-27T19:06:46.414Z,1.57
2023-03-27T19:09:14.516Z,2.30
2023-03-27T19:11:43.997Z,1.90
2023-03-27T19:14:30.902Z,2.10
2023-03-27T19:17:17.111Z,2.50
2023-03-27T19:20:03.340Z,2.28
2023-03-27T19:22:35.822Z,2.67
2023-03-27T19:25:16.185Z,2.20
2023-03-27T19:27:44.396Z,2.47
2023-03-27T19:30:14.414Z,3.13
2023-03-27T19:32:42.513Z,2.67
2023-03-27T19:35:12.242Z,2.20
2023-03-27T19:37:40.561Z,2.77
2023-03-27T19:40:10.516Z,2.60
2023-03-27T19:42:38.212Z,2.47
2023-03-27T19:45:06.503Z,2.20
2023-03-27T19:47:34.246Z,3.30
2023-03-27T19:50:01.984Z,2.93
2023-03-27T19:53:01.472Z,2.53
2023-03-27T19:55:35.761Z,2.20
2023-03-27T19:58:03.484Z,2.60
2023-03-27T20:00:32.485Z,2.50
2023-03-27T20:03:00.444Z,2.60
2023-03-27T20:05:29.502Z,3.00
2023-03-27T20:07:58.812Z,2.90
2023-03-27T20:10:27.065Z,2.67
2023-03-27T20:12:54.965Z,3.00
2023-03-27T20:15:22.773Z,2.50
2023-03-27T20:17:50.646Z,2.37
2023-03-27T20:20:19.798Z,2.30
2023-03-27T20:22:56.909Z,2.27
2023-03-27T20:25:29.760Z,2.30
2023-03-27T20:27:57.472Z,2.30
2023-03-27T20:30:26.632Z,2.30
2023-03-27T20:32:54.741Z,2.30
2023-03-27T20:35:24.727Z,2.30
2023-03-27T20:37:57.524Z,2.27
2023-03-27T20:40:27.527Z,2.83
2023-03-27T20:43:02.917Z,2.00
2023-03-27T20:45:31.714Z,2.50
2023-03-27T20:48:03.656Z,2.70
2023-03-27T20:50:34.787Z,2.90
2023-03-27T20:53:04.112Z,2.90
2023-03-27T20:55:37.580Z,3.00
2023-03-27T20:58:09.581Z,3.70
2023-03-27T21:00:37.833Z,3.70
2023-03-27T21:03:05.989Z,3.70
2023-03-27T21:05:34.576Z,3.63
2023-03-27T21:08:03.409Z,3.40
2023-03-27T21:10:31.057Z,3.10
2023-03-27T21:13:00.225Z,3.30
2023-03-27T21:15:28.040Z,2.97
2023-03-27T21:17:55.961Z,2.93
2023-03-27T21:20:26.510Z,2.57
2023-03-27T21:22:54.589Z,2.57
2023-03-27T21:25:23.038Z,1.60
2023-03-27T21:27:57.104Z,1.40
2023-03-27T21:30:46.802Z,1.97
2023-03-27T21:33:15.744Z,1.80
2023-03-27T21:35:45.892Z,1.93
2023-03-27T21:38:13.774Z,2.03
2023-03-27T21:40:41.948Z,1.60
2023-03-27T21:43:09.686Z,1.70
2023-03-27T21:45:38.954Z,1.87
2023-03-27T21:48:07.153Z,1.80
2023-03-27T21:50:34.824Z,2.10
2023-03-27T21:53:02.747Z,1.37
2023-03-27T21:55:30.860Z,2.30
2023-03-27T21:57:58.605Z,2.03
2023-03-27T22:00:26.942Z,2.00
2023-03-27T22:02:56.971Z,1.40
2023-03-27T22:05:24.938Z,1.27
2023-03-27T22:07:52.939Z,2.40
2023-03-27T22:10:21.356Z,1.50
2023-03-27T22:12:49.120Z,1.67
2023-03-27T22:15:16.898Z,1.40
2023-03-27T22:17:44.594Z,1.73
2023-03-27T22:20:13.665Z,1.50
2023-03-27T22:22:41.747Z,1.37
2023-03-27T22:25:10.252Z,1.60
2023-03-27T22:27:39.273Z,1.40
2023-03-27T22:30:08.674Z,1.80
2023-03-27T22:32:36.913Z,1.73
2023-03-27T22:35:04.901Z,1.60
2023-03-27T22:37:36.288Z,1.50
2023-03-27T22:40:04.364Z,1.67
2023-03-27T22:42:32.219Z,1.43
2023-03-27T22:45:00.305Z,1.90
2023-03-27T22:47:28.438Z,2.33
2023-03-27T22:49:56.090Z,1.93
2023-03-27T22:52:23.999Z,1.60
2023-03-27T22:54:53.607Z,1.30
2023-03-27T22:57:21.357Z,1.50
2023-03-27T22:59:50.872Z,1.37
2023-03-27T23:02:18.587Z,1.40
2023-03-27T23:04:46.643Z,1.57
2023-03-27T23:07:14.362Z,1.60
2023-03-27T23:09:41.966Z,2.03
2023-03-27T23:12:11.021Z,1.67
2023-03-27T23:14:38.671Z,1.40
2023-03-27T23:17:06.918Z,1.30
2023-03-27T23:19:34.617Z,1.60
2023-03-27T23:22:02.304Z,1.30
2023-03-27T23:24:30.558Z,1.20
2023-03-27T23:26:58.304Z,1.50
2023-03-27T23:29:27.319Z,1.53
2023-03-27T23:31:55.018Z,1.43
2023-03-27T23:34:22.824Z,1.50
2023-03-27T23:36:51.021Z,1.23
2023-03-27T23:39:18.700Z,1.60
2023-03-27T23:41:46.465Z,1.57
2023-03-27T23:44:14.130Z,1.97
2023-03-27T23:46:43.100Z,1.50
2023-03-27T23:49:12.982Z,1.57
2023-03-27T23:51:41.521Z,1.40
2023-03-27T23:54:09.222Z,1.70
2023-03-27T23:56:36.923Z,1.53
2023-03-27T23:59:04.590Z,2.07
